Airfield :
LOGIN :

Register | Disclaimer

   EN    FR    IT 

 










Legend :    VFR   Marginal VFR   IFR   Intensive IFR   Very Intensive IFR
Visi :
Ceiling :
>= 8 km
>= 3000ft
5 to 8 km
1000 to 3000 ft
1500m to 5 km
500 to 1000 ft
800 to 1500m
200 to 500 ft
< 800m
< 200 ft
Symbols :   Thunderstorms  Fog  Heavy snow  Heavy precipitations  Wind > 20 kt
SIGMETs :     Misc.  Thunderstorms  Icing  Turbulence  Mountain Waves  Volcanic Ashes






- Airport Elevation : 3006 ft
- IATA code : LEN


LELN - Leon

CURRENT METAR :
  • 220030Z AUTO 26007KT 230V290 CAVOK 10/09 Q1016

EXPIRED METARs :
  • 220000Z AUTO 26009KT 9999 FEW046 10/09 Q1016
  • 212330Z AUTO 26008KT 220V290 CAVOK 10/09 Q1016
  • 212300Z AUTO 26010KT 240V300 9999 BKN046 10/08 Q1016
  • 212230Z AUTO 27010KT 9999 BKN047 11/08 Q1015
  • 212200Z AUTO 29006KT 250V320 9000 SCT049 11/09 Q1015

TAF AMD TAF LELN
Valid from the 21 at 22:00 until the 22 at 21:00 UTC


212257Z 2122/2221 VRB05KT 9999 SCT030 BKN050 TX19/2215Z TN09/2205Z
TEMPO 2122/2206 27010KT
BECMG 2209/2211 35010KT
PROB30
TEMPO 2209/2218 3000 RA SHRA SCT030TCU



MET'MAP, your aeronautical weather chart ! - Copyright ORBIFLY December 2007 - Disclaimer

ORBIFLY MET'MAP TEAM :

Programming & Development : Alexandra Zaïnal
Concept & original design : Baudouin d'Aumeries
Assistance for programming : Marc-Olivier Méhu
Technical & hardware support : Manuel Goepfert

Contact : metmap@orbifly.com




SOURCES & CREDITS :

   NOAA